createdAt,value
2018-03-03T00:01:09.377Z,28.50
2018-03-03T00:03:39.367Z,29.98
2018-03-03T00:06:09.184Z,29.17
2018-03-03T00:08:38.951Z,31.05
2018-03-03T00:11:08.996Z,28.75
2018-03-03T00:13:41.741Z,30.98
2018-03-03T00:16:14.104Z,29.55
2018-03-03T00:18:45.571Z,30.23
2018-03-03T00:21:15.479Z,28.35
2018-03-03T00:23:45.478Z,29.60
2018-03-03T00:26:14.945Z,26.62
2018-03-03T00:28:47.396Z,27.27
2018-03-03T00:31:17.087Z,26.10
2018-03-03T00:33:46.744Z,27.17
2018-03-03T00:36:16.883Z,27.02
2018-03-03T00:38:46.514Z,25.85
2018-03-03T00:41:16.546Z,26.30
2018-03-03T00:43:46.206Z,24.25
2018-03-03T00:46:15.592Z,24.95
2018-03-03T00:48:45.360Z,25.23
2018-03-03T00:51:15.865Z,25.45
2018-03-03T00:53:45.693Z,24.30
2018-03-03T00:56:15.481Z,26.23
2018-03-03T00:58:45.265Z,23.98
2018-03-03T01:01:14.734Z,24.30
2018-03-03T01:03:45.094Z,24.48
2018-03-03T01:06:15.134Z,25.20
2018-03-03T01:08:45.185Z,25.23
2018-03-03T01:11:15.803Z,22.55
2018-03-03T01:13:45.210Z,25.10
2018-03-03T01:16:14.996Z,23.38
2018-03-03T01:18:44.951Z,25.73
2018-03-03T01:21:14.681Z,24.20
2018-03-03T01:23:44.429Z,25.00
2018-03-03T01:26:14.191Z,23.90
2018-03-03T01:28:44.030Z,24.55
2018-03-03T01:31:16.067Z,26.10
2018-03-03T01:33:46.332Z,24.15
2018-03-03T01:36:16.167Z,24.05
2018-03-03T01:38:46.544Z,21.95
2018-03-03T01:41:15.970Z,22.95
2018-03-03T01:43:45.587Z,23.30
2018-03-03T01:46:15.483Z,22.80
2018-03-03T01:48:46.450Z,23.80
2018-03-03T01:51:24.570Z,22.37
2018-03-03T01:53:54.373Z,23.92
2018-03-03T01:56:25.751Z,23.80
2018-03-03T01:58:55.804Z,22.98
2018-03-03T02:01:27.514Z,24.02
2018-03-03T02:03:59.549Z,22.80
2018-03-03T02:06:29.572Z,22.98
2018-03-03T02:09:01.456Z,20.88
2018-03-03T02:11:39.517Z,22.83
2018-03-03T02:14:11.315Z,21.55
2018-03-03T02:16:41.882Z,23.23
2018-03-03T02:19:13.816Z,20.90
2018-03-03T02:21:43.741Z,21.58
2018-03-03T02:24:14.925Z,21.40
2018-03-03T02:26:44.806Z,21.12
2018-03-03T02:29:14.647Z,22.08
2018-03-03T02:31:45.361Z,21.40
2018-03-03T02:34:15.442Z,22.20
2018-03-03T02:36:45.327Z,21.87
2018-03-03T02:39:15.293Z,21.75
2018-03-03T02:41:45.062Z,22.70
2018-03-03T02:44:14.848Z,23.12
2018-03-03T02:46:44.664Z,22.30
2018-03-03T02:49:14.358Z,21.58
2018-03-03T02:51:44.058Z,21.35
2018-03-03T02:54:13.888Z,22.17
2018-03-03T02:56:43.803Z,21.75
2018-03-03T02:59:13.956Z,22.10
2018-03-03T03:01:43.632Z,20.55
2018-03-03T03:04:13.877Z,21.60
2018-03-03T03:06:43.838Z,21.30
2018-03-03T03:09:13.748Z,21.50
2018-03-03T03:11:43.569Z,21.52
2018-03-03T03:14:14.177Z,22.05
2018-03-03T03:16:44.128Z,21.30
2018-03-03T03:19:13.960Z,22.15
2018-03-03T03:21:44.321Z,21.70
2018-03-03T03:24:14.081Z,21.52
2018-03-03T03:26:45.137Z,21.00
2018-03-03T03:29:16.357Z,22.20
2018-03-03T03:31:46.757Z,21.42
2018-03-03T03:34:17.170Z,21.35
2018-03-03T03:36:47.324Z,21.00
2018-03-03T03:39:17.509Z,21.40
2018-03-03T03:41:47.083Z,22.52
2018-03-03T03:44:16.988Z,21.67
2018-03-03T03:46:47.246Z,22.70
2018-03-03T03:49:17.042Z,21.70
2018-03-03T03:51:47.021Z,21.62
2018-03-03T03:54:17.172Z,22.27
2018-03-03T03:56:46.795Z,21.77
2018-03-03T03:59:16.718Z,21.27
2018-03-03T04:01:47.627Z,20.83
2018-03-03T04:04:17.333Z,19.65
2018-03-03T04:06:47.608Z,20.30
2018-03-03T04:09:17.610Z,19.20
2018-03-03T04:11:50.256Z,20.45
2018-03-03T04:14:19.936Z,19.98
2018-03-03T04:16:49.642Z,19.02
2018-03-03T04:19:19.762Z,19.40
2018-03-03T04:21:50.227Z,20.17
2018-03-03T04:24:20.034Z,19.30
2018-03-03T04:26:50.105Z,19.45
2018-03-03T04:29:20.108Z,19.55
2018-03-03T04:31:49.922Z,18.92
2018-03-03T04:34:19.857Z,19.27
2018-03-03T04:36:50.233Z,19.12
2018-03-03T04:39:19.935Z,18.92
2018-03-03T04:41:49.688Z,19.45
2018-03-03T04:44:19.882Z,19.35
2018-03-03T04:46:49.965Z,18.90
2018-03-03T04:49:20.126Z,18.75
2018-03-03T04:51:50.763Z,19.30
2018-03-03T04:54:20.907Z,19.27
2018-03-03T04:56:51.263Z,18.10
2018-03-03T04:59:21.253Z,18.80
2018-03-03T05:01:51.334Z,19.77
2018-03-03T05:04:21.210Z,18.50
2018-03-03T05:06:51.841Z,19.87
2018-03-03T05:09:21.766Z,19.27
2018-03-03T05:11:51.926Z,18.08
2018-03-03T05:14:21.881Z,18.33
2018-03-03T05:16:52.406Z,18.55
2018-03-03T05:19:23.625Z,18.12
2018-03-03T05:21:57.939Z,18.20
2018-03-03T05:24:28.697Z,17.37
2018-03-03T05:27:04.182Z,17.15
2018-03-03T05:29:34.602Z,18.17
2018-03-03T05:32:07.760Z,18.37
2018-03-03T05:34:41.674Z,18.90
2018-03-03T05:37:12.314Z,18.75
2018-03-03T05:39:42.232Z,18.35
2018-03-03T05:42:12.091Z,18.67
2018-03-03T05:44:42.843Z,18.42
2018-03-03T05:47:12.828Z,18.15
2018-03-03T05:49:44.731Z,18.58
2018-03-03T05:52:14.743Z,17.98
2018-03-03T05:54:45.540Z,18.55
2018-03-03T05:57:15.376Z,18.40
2018-03-03T05:59:45.711Z,17.73
2018-03-03T06:02:16.269Z,19.30
2018-03-03T06:04:47.590Z,18.52
2018-03-03T06:07:17.864Z,18.00
2018-03-03T06:09:48.332Z,17.48
2018-03-03T06:12:19.565Z,17.42
2018-03-03T06:14:50.487Z,17.80
2018-03-03T06:17:20.378Z,18.42
2018-03-03T06:19:50.551Z,18.98
2018-03-03T06:22:20.737Z,19.35
2018-03-03T06:24:51.479Z,18.12
2018-03-03T06:27:21.458Z,20.65
2018-03-03T06:29:52.504Z,18.90
2018-03-03T06:32:22.624Z,18.70
2018-03-03T06:34:53.022Z,19.52
2018-03-03T06:37:22.934Z,19.12
2018-03-03T06:39:53.544Z,19.02
2018-03-03T06:42:23.401Z,17.80
2018-03-03T06:44:53.111Z,19.75
2018-03-03T06:47:23.016Z,17.98
2018-03-03T06:49:54.823Z,20.12
2018-03-03T06:52:24.507Z,18.60
2018-03-03T06:54:54.433Z,17.80
2018-03-03T06:57:24.140Z,19.12
2018-03-03T06:59:53.733Z,19.62
2018-03-03T07:02:23.731Z,19.50
2018-03-03T07:04:55.216Z,19.75
2018-03-03T07:07:27.060Z,18.33
2018-03-03T07:09:57.174Z,19.52
2018-03-03T07:12:29.252Z,19.33
2018-03-03T07:15:02.168Z,19.73
2018-03-03T07:17:33.219Z,21.75
2018-03-03T07:20:06.620Z,19.50
2018-03-03T07:22:36.360Z,19.50
2018-03-03T07:25:07.798Z,20.27
2018-03-03T07:27:37.526Z,18.67
2018-03-03T07:30:07.166Z,20.25
2018-03-03T07:32:37.324Z,19.05
2018-03-03T07:35:07.819Z,20.20
2018-03-03T07:37:38.020Z,20.02
2018-03-03T07:40:08.557Z,20.73
2018-03-03T07:42:39.265Z,18.67
2018-03-03T07:45:14.447Z,20.25
2018-03-03T07:47:44.447Z,19.23
2018-03-03T07:50:14.196Z,21.05
2018-03-03T07:52:44.208Z,19.20
2018-03-03T07:55:14.653Z,19.30
2018-03-03T07:57:45.791Z,18.90
2018-03-03T08:00:15.778Z,19.42
2018-03-03T08:02:45.925Z,19.90
2018-03-03T08:05:16.057Z,20.15
2018-03-03T08:07:45.784Z,17.98
2018-03-03T08:10:15.980Z,19.40
2018-03-03T08:12:46.867Z,20.30
2018-03-03T08:15:16.603Z,19.75
2018-03-03T08:17:47.836Z,20.35
2018-03-03T08:20:17.661Z,20.35
2018-03-03T08:22:47.543Z,20.37
2018-03-03T08:25:17.652Z,20.85
2018-03-03T08:27:48.885Z,23.05
2018-03-03T08:30:18.696Z,21.35
2018-03-03T08:32:48.469Z,22.65
2018-03-03T08:35:18.124Z,21.80
2018-03-03T08:37:48.927Z,20.90
2018-03-03T08:40:19.088Z,22.65
2018-03-03T08:42:53.962Z,21.37
2018-03-03T08:45:24.028Z,23.08
2018-03-03T08:47:53.846Z,23.30
2018-03-03T08:50:36.547Z,24.42
2018-03-03T08:53:08.937Z,25.37
2018-03-03T08:55:42.065Z,25.42
2018-03-03T08:58:13.822Z,23.80
2018-03-03T09:00:44.258Z,24.40
2018-03-03T09:03:14.315Z,25.85
2018-03-03T09:05:46.584Z,24.45
2018-03-03T09:08:16.678Z,25.90
2018-03-03T09:10:49.169Z,26.00
2018-03-03T09:13:19.141Z,25.05
2018-03-03T09:15:49.199Z,25.60
2018-03-03T09:18:20.063Z,26.92
2018-03-03T09:20:50.648Z,25.80
2018-03-03T09:23:22.330Z,26.50
2018-03-03T09:25:52.482Z,28.02
2018-03-03T09:28:25.927Z,27.00
2018-03-03T09:30:55.925Z,28.25
2018-03-03T09:33:26.450Z,26.30
2018-03-03T09:35:55.925Z,28.80
2018-03-03T09:38:25.709Z,26.70
2018-03-03T09:40:55.878Z,27.95
2018-03-03T09:43:25.890Z,29.92
2018-03-03T09:45:55.706Z,35.33
2018-03-03T09:48:26.092Z,28.55
2018-03-03T09:50:55.783Z,27.73
2018-03-03T09:53:25.395Z,29.85
2018-03-03T09:55:56.755Z,29.60
2018-03-03T09:58:27.585Z,27.35
2018-03-03T10:00:59.743Z,27.73
2018-03-03T10:03:30.206Z,29.67
2018-03-03T10:06:00.559Z,27.37
2018-03-03T10:08:32.298Z,29.45
2018-03-03T10:11:03.484Z,29.67
2018-03-03T10:13:32.957Z,30.25
2018-03-03T10:16:02.751Z,31.50
2018-03-03T10:18:34.710Z,32.42
2018-03-03T10:21:04.624Z,31.67
2018-03-03T10:23:34.802Z,29.50
2018-03-03T10:26:04.732Z,30.02
2018-03-03T10:28:34.840Z,29.55
2018-03-03T10:31:05.760Z,30.60
2018-03-03T10:33:39.308Z,29.80
2018-03-03T10:36:09.824Z,29.98
2018-03-03T10:38:39.874Z,29.40
2018-03-03T10:41:09.324Z,31.80
2018-03-03T10:45:17.602Z,29.10
2018-03-03T10:47:47.344Z,29.02
2018-03-03T10:50:17.058Z,30.25
2018-03-03T10:52:46.774Z,30.58
2018-03-03T10:55:16.399Z,29.48
2018-03-03T10:57:47.693Z,30.40
2018-03-03T11:00:21.622Z,31.75
2018-03-03T11:02:52.138Z,33.08
2018-03-03T11:05:21.843Z,31.02
2018-03-03T11:07:51.289Z,28.48
2018-03-03T11:10:21.470Z,30.20
2018-03-03T11:12:51.139Z,28.87
2018-03-03T11:15:20.901Z,28.92
2018-03-03T11:17:50.691Z,30.05
2018-03-03T11:20:20.587Z,27.62
2018-03-03T11:22:51.022Z,30.90
2018-03-03T11:25:20.725Z,30.08
2018-03-03T11:27:50.585Z,29.42
2018-03-03T11:30:20.331Z,30.27
2018-03-03T11:32:50.440Z,30.42
2018-03-03T11:35:21.801Z,30.40
2018-03-03T11:37:52.212Z,30.60
2018-03-03T11:40:23.349Z,30.58
2018-03-03T11:42:56.704Z,31.35
2018-03-03T11:45:28.341Z,31.80
2018-03-03T11:47:58.759Z,31.23
2018-03-03T11:50:30.080Z,30.88
2018-03-03T11:53:04.744Z,29.33
2018-03-03T11:55:35.111Z,29.77
2018-03-03T11:58:08.812Z,33.72
2018-03-03T12:00:39.142Z,31.33
2018-03-03T12:03:12.305Z,30.10
2018-03-03T12:05:42.887Z,32.00
2018-03-03T12:08:12.726Z,30.15
2018-03-03T12:10:42.571Z,29.67
2018-03-03T12:13:14.081Z,32.08
2018-03-03T12:15:45.035Z,31.25
2018-03-03T12:18:14.829Z,33.58
2018-03-03T12:20:44.481Z,30.85
2018-03-03T12:23:15.162Z,31.52
2018-03-03T12:25:46.375Z,31.52
2018-03-03T12:28:16.761Z,30.33
2018-03-03T12:30:46.245Z,32.70
2018-03-03T12:33:16.283Z,30.73
2018-03-03T12:35:46.034Z,31.83
2018-03-03T12:38:15.530Z,31.35
2018-03-03T12:40:46.389Z,30.25
2018-03-03T12:43:16.596Z,33.60
2018-03-03T12:45:46.599Z,32.75
2018-03-03T12:48:16.000Z,33.58
2018-03-03T12:50:46.151Z,32.88
2018-03-03T12:53:15.719Z,32.20
2018-03-03T12:55:46.193Z,30.95
2018-03-03T12:58:16.372Z,32.38
2018-03-03T13:00:46.442Z,31.85
2018-03-03T13:03:15.912Z,33.80
2018-03-03T13:05:45.369Z,32.28
2018-03-03T13:08:16.748Z,33.53
2018-03-03T13:10:47.161Z,32.53
2018-03-03T13:13:18.686Z,33.30
2018-03-03T13:15:49.596Z,31.62
2018-03-03T13:18:19.039Z,33.45
2018-03-03T13:20:49.355Z,31.85
2018-03-03T13:23:18.970Z,35.38
2018-03-03T13:25:48.488Z,33.60
2018-03-03T13:28:18.300Z,34.10
2018-03-03T13:30:48.652Z,34.78
2018-03-03T13:33:18.540Z,35.10
2018-03-03T13:35:48.030Z,33.97
2018-03-03T13:38:17.842Z,35.33
2018-03-03T13:40:47.340Z,35.30
2018-03-03T13:43:16.789Z,42.15
2018-03-03T13:45:46.656Z,36.92
2018-03-03T13:48:16.649Z,35.80
2018-03-03T13:50:47.768Z,33.40
2018-03-03T13:53:17.641Z,35.10
2018-03-03T13:55:47.730Z,33.25
2018-03-03T13:58:17.212Z,32.75
2018-03-03T14:00:47.984Z,32.20
2018-03-03T14:03:17.508Z,31.02
2018-03-03T14:05:47.539Z,32.42
2018-03-03T14:08:17.915Z,32.35
2018-03-03T14:10:49.213Z,33.25
2018-03-03T14:13:18.696Z,33.72
2018-03-03T14:15:48.538Z,31.42
2018-03-03T14:18:18.156Z,33.78
2018-03-03T14:20:48.361Z,33.25
2018-03-03T14:23:18.231Z,34.88
2018-03-03T14:25:47.888Z,32.50
2018-03-03T14:28:17.476Z,35.22
2018-03-03T14:30:47.271Z,34.28
2018-03-03T14:33:17.394Z,33.70
2018-03-03T14:35:47.145Z,30.55
2018-03-03T14:38:16.880Z,33.00
2018-03-03T14:40:46.425Z,34.03
2018-03-03T14:43:15.938Z,34.60
2018-03-03T14:45:48.855Z,35.70
2018-03-03T14:48:18.643Z,31.42
2018-03-03T14:50:53.168Z,30.75
2018-03-03T14:53:27.114Z,29.40
2018-03-03T14:56:01.685Z,29.55
2018-03-03T14:58:36.265Z,29.30
2018-03-03T15:01:07.411Z,30.25
2018-03-03T15:03:41.138Z,30.75
2018-03-03T15:06:14.951Z,31.98
2018-03-03T15:08:45.339Z,29.85
2018-03-03T15:11:14.830Z,28.38
2018-03-03T15:13:45.910Z,28.60
2018-03-03T15:16:16.494Z,28.25
2018-03-03T15:18:46.898Z,27.87
2018-03-03T15:21:17.853Z,27.55
2018-03-03T15:23:47.785Z,29.60
2018-03-03T15:26:17.285Z,29.35
2018-03-03T15:28:51.199Z,26.73
2018-03-03T15:31:21.381Z,28.75
2018-03-03T15:33:52.738Z,28.70
2018-03-03T15:36:22.797Z,27.87
2018-03-03T15:38:53.563Z,26.52
2018-03-03T15:41:23.546Z,27.33
2018-03-03T15:43:53.005Z,26.25
2018-03-03T15:46:23.735Z,27.45
2018-03-03T15:48:54.579Z,26.48
2018-03-03T15:51:24.123Z,25.88
2018-03-03T15:53:53.598Z,26.85
2018-03-03T15:56:23.388Z,25.92
2018-03-03T15:58:54.888Z,26.95
2018-03-03T16:01:24.845Z,27.70
2018-03-03T16:03:56.180Z,27.13
2018-03-03T16:06:26.564Z,27.42
2018-03-03T16:08:56.302Z,28.80
2018-03-03T16:11:26.625Z,28.38
2018-03-03T16:13:56.535Z,27.58
2018-03-03T16:16:26.823Z,27.62
2018-03-03T16:18:56.899Z,26.70
2018-03-03T16:21:27.085Z,26.75
2018-03-03T16:23:57.126Z,27.70
2018-03-03T16:26:26.984Z,26.12
2018-03-03T16:28:56.405Z,28.12
2018-03-03T16:31:26.475Z,26.70
2018-03-03T16:33:56.530Z,27.83
2018-03-03T16:36:26.841Z,26.77
2018-03-03T16:38:59.555Z,27.30
2018-03-03T16:41:29.593Z,27.35
2018-03-03T16:43:59.768Z,26.80
2018-03-03T16:46:29.704Z,27.55
2018-03-03T16:49:03.750Z,26.23
2018-03-03T16:51:33.460Z,26.42
2018-03-03T16:54:04.198Z,28.17
2018-03-03T16:56:35.393Z,27.67
2018-03-03T16:59:06.443Z,27.42
2018-03-03T17:01:36.073Z,26.30
2018-03-03T17:04:07.295Z,27.02
2018-03-03T17:06:37.887Z,26.87
2018-03-03T17:09:09.360Z,26.40
2018-03-03T17:11:38.883Z,26.80
2018-03-03T17:14:10.466Z,26.70
2018-03-03T17:16:40.213Z,26.12
2018-03-03T17:19:10.293Z,26.35
2018-03-03T17:21:44.342Z,26.80
2018-03-03T17:24:14.090Z,26.60
2018-03-03T17:26:45.220Z,26.70
2018-03-03T17:29:14.675Z,27.90
2018-03-03T17:31:46.520Z,26.83
2018-03-03T17:34:18.380Z,26.67
2018-03-03T17:36:47.911Z,26.12
2018-03-03T17:39:17.591Z,27.45
2018-03-03T17:41:47.395Z,26.77
2018-03-03T17:44:17.644Z,26.50
2018-03-03T17:46:47.293Z,26.87
2018-03-03T17:49:17.232Z,27.65
2018-03-03T17:51:49.282Z,25.92
2018-03-03T17:54:18.873Z,27.52
2018-03-03T17:56:48.754Z,27.23
2018-03-03T17:59:18.251Z,25.42
2018-03-03T18:01:47.933Z,26.23
2018-03-03T18:04:17.860Z,27.05
2018-03-03T18:06:47.502Z,27.15
2018-03-03T18:09:17.111Z,26.35
2018-03-03T18:11:56.824Z,26.85
2018-03-03T18:14:27.030Z,26.95
2018-03-03T18:16:56.549Z,24.80
2018-03-03T18:19:28.809Z,25.75
2018-03-03T18:21:58.408Z,26.02
2018-03-03T18:24:35.192Z,27.58
2018-03-03T18:27:04.917Z,24.85
2018-03-03T18:29:34.669Z,25.30
2018-03-03T18:32:04.565Z,24.65
2018-03-03T18:34:34.160Z,25.62
2018-03-03T18:37:03.696Z,24.73
2018-03-03T18:39:33.674Z,26.08
2018-03-03T18:42:03.209Z,26.85
2018-03-03T18:44:32.786Z,25.40
2018-03-03T18:47:03.624Z,24.87
2018-03-03T18:49:33.063Z,24.63
2018-03-03T18:52:04.724Z,24.60
2018-03-03T18:54:35.922Z,24.52
2018-03-03T18:57:07.970Z,25.73
2018-03-03T18:59:37.849Z,23.23
2018-03-03T19:02:07.896Z,25.33
2018-03-03T19:04:37.705Z,24.65
2018-03-03T19:07:07.600Z,24.30
2018-03-03T19:09:37.956Z,24.55
2018-03-03T19:12:07.871Z,25.23
2018-03-03T19:14:37.640Z,23.65
2018-03-03T19:17:07.619Z,22.67
2018-03-03T19:19:37.431Z,25.17
2018-03-03T19:22:06.918Z,24.45
2018-03-03T19:24:37.140Z,23.73
2018-03-03T19:27:07.047Z,24.08
2018-03-03T19:30:39.421Z,24.48
2018-03-03T19:33:09.146Z,24.05
2018-03-03T19:35:39.053Z,24.98
2018-03-03T19:38:09.437Z,24.50
2018-03-03T19:40:39.123Z,24.52
2018-03-03T19:43:08.586Z,23.02
2018-03-03T19:45:38.135Z,23.40
2018-03-03T19:48:07.635Z,25.25
2018-03-03T19:50:37.178Z,25.90
2018-03-03T19:53:07.210Z,25.90
2018-03-03T19:55:36.670Z,24.75
2018-03-03T19:58:06.417Z,24.40
2018-03-03T20:00:35.957Z,24.45
2018-03-03T20:03:05.512Z,24.80
2018-03-03T20:05:35.019Z,24.73
2018-03-03T20:08:05.114Z,25.85
2018-03-03T20:10:34.715Z,25.85
2018-03-03T20:13:05.663Z,26.77
2018-03-03T20:15:35.510Z,26.58
2018-03-03T20:18:05.529Z,26.08
2018-03-03T20:20:35.422Z,25.90
2018-03-03T20:23:05.099Z,25.58
2018-03-03T20:25:34.785Z,27.52
2018-03-03T20:28:04.908Z,25.88
2018-03-03T20:30:34.526Z,24.55
2018-03-03T20:33:04.635Z,25.37
2018-03-03T20:35:34.786Z,26.00
2018-03-03T20:38:04.466Z,35.30
2018-03-03T20:40:34.642Z,52.67
2018-03-03T20:43:26.986Z,49.15
2018-03-03T20:45:56.952Z,45.80
2018-03-03T20:48:26.938Z,36.13
2018-03-03T20:50:56.708Z,29.05
2018-03-03T20:53:26.321Z,29.20
2018-03-03T20:55:55.986Z,38.03
2018-03-03T20:58:26.012Z,34.70
2018-03-03T21:00:55.876Z,35.88
2018-03-03T21:03:25.566Z,33.40
2018-03-03T21:05:55.196Z,37.13
2018-03-03T21:08:24.947Z,29.95
2018-03-03T21:11:02.255Z,33.78
2018-03-03T21:13:33.538Z,30.55
2018-03-03T21:16:04.752Z,36.67
2018-03-03T21:18:40.204Z,37.15
2018-03-03T21:21:09.831Z,34.45
2018-03-03T21:23:40.270Z,32.15
2018-03-03T21:26:10.238Z,40.45
2018-03-03T21:28:41.279Z,34.97
2018-03-03T21:31:10.944Z,44.75
2018-03-03T21:33:40.510Z,38.13
2018-03-03T21:36:10.171Z,37.22
2018-03-03T21:38:41.260Z,36.72
2018-03-03T21:41:11.071Z,44.10
2018-03-03T21:43:40.809Z,44.40
2018-03-03T21:46:10.777Z,45.70
2018-03-03T21:48:41.223Z,34.95
2018-03-03T21:51:11.424Z,33.58
2018-03-03T21:53:41.364Z,34.67
2018-03-03T21:56:10.907Z,42.78
2018-03-03T21:58:40.404Z,37.40
2018-03-03T22:01:10.035Z,41.65
2018-03-03T22:03:40.188Z,37.92
2018-03-03T22:06:10.242Z,37.58
2018-03-03T22:08:41.190Z,36.85
2018-03-03T22:11:10.962Z,41.15
2018-03-03T22:13:40.506Z,45.53
2018-03-03T22:16:10.830Z,47.20
2018-03-03T22:18:40.306Z,36.53
2018-03-03T22:21:09.914Z,30.70
2018-03-03T22:23:40.034Z,34.38
2018-03-03T22:26:10.128Z,33.10
2018-03-03T22:28:40.031Z,32.15
2018-03-03T22:31:09.960Z,30.20
2018-03-03T22:33:39.859Z,29.73
2018-03-03T22:36:09.514Z,30.83
2018-03-03T22:38:39.523Z,29.63
2018-03-03T22:41:09.242Z,34.20
2018-03-03T22:43:39.281Z,37.05
2018-03-03T22:46:09.462Z,32.47
2018-03-03T22:48:38.966Z,30.12
2018-03-03T22:51:08.846Z,36.13
2018-03-03T22:53:38.942Z,30.23
2018-03-03T22:56:08.557Z,37.75
2018-03-03T22:58:38.630Z,34.03
2018-03-03T23:01:09.467Z,31.23
2018-03-03T23:03:39.400Z,31.15
2018-03-03T23:06:08.964Z,30.42
2018-03-03T23:08:38.864Z,29.73
2018-03-03T23:11:08.628Z,30.25
2018-03-03T23:13:38.730Z,30.70
2018-03-03T23:16:08.630Z,30.20
2018-03-03T23:18:38.532Z,29.05
2018-03-03T23:21:08.099Z,28.60
2018-03-03T23:23:38.092Z,28.33
2018-03-03T23:26:08.673Z,27.30
2018-03-03T23:28:38.299Z,30.20
2018-03-03T23:31:08.273Z,29.65
2018-03-03T23:33:38.394Z,29.80
2018-03-03T23:36:07.871Z,31.75
2018-03-03T23:38:37.690Z,29.83
2018-03-03T23:41:07.253Z,33.60
2018-03-03T23:43:36.686Z,32.70
2018-03-03T23:46:06.706Z,31.25
2018-03-03T23:48:36.477Z,29.10
2018-03-03T23:51:06.558Z,29.12
2018-03-03T23:53:37.258Z,29.83
2018-03-03T23:56:08.577Z,27.77
2018-03-03T23:58:38.915Z,28.38
